KISQ/ISQ METAR and TAF weather

Enter ICAO airport designator
Station Type Date Time Source
KISQ METAR 2024/02/26 16:55 UTC NOAA

KISQ 261655Z AUTO 13008G14KT 10SM SCT120 03/00 A2982 RMK AO2 T00251002


Station Type Date Time Source
KISQ Decoded METAR 2024/02/26 16:55 UTC NOAA

Manistique, Schoolcraft County Airport, MI, United States (KISQ) 45-58-29N 086-10-19W
Feb 26, 2024 - 11:55 AM EST / 2024.02.26 1655 UTC
Wind: from the SE (130 degrees) at 9 MPH (8 KT) gusting to 16 MPH (14 KT):0
Visibility: 10 mile(s):0
Sky conditions: partly cloudy
Temperature: 36.5 F (2.5 C)
Dew Point: 31.6 F (-0.2 C)
Relative Humidity: 82%
Pressure (altimeter): 29.82 in. Hg (1009 hPa)
ob: KISQ 261655Z AUTO 13008G14KT 10SM SCT120 03/00 A2982 RMK AO2 T00251002
cycle: 17

Station Type Date Time Source
KISQ TAF UTC NOAA

Error!

Example: see airport list